Pagrindinis puslapis
METAR-TAF:

METAR-TAF

Oro uostai :

Reštas, Iranas

platuma: 37-12N, ilguma: 049-38E, Aukštis: -7 m

Dabartinis oras

Ataskaita buvo paskelbta 4 valandos ir 5 minutes, ne 18:30 UTC
Vėjas 6 kt iš Pietų
Temperatūra 9°C
Drėgmė 100%
Slėgis 1026 hPa
Matomumas: 8000 m
Su prošvaistėmis ne aukštis 1000 ft
Mažai debesys ne aukštis 2000 ft, Liūtiniai kamuoliniai debesys.
Apsiniaukę ne aukštis 7000 ft

METAR: OIGG 291830Z 19006KT 8000 BKN010 FEW020CB OVC070 09/09 Q1026

Laikas: 02:05 (22:35 UTC)


TAF: trūkstamas

Orai ataskaitas ir orų prognozės (METAR, TAF).

turimą stotys yra geltonos ir raudonos taškus žemėlapyje.

Perkelti pele per norėdami pamatyti stoties vardą.

Tada spustelėkite, norėdami matyti oro stebėjimo ir prognozės.

Norėdami pakeisti žemėlapį: spustelėkite ant žalios mygtukų su juodo kryžiaus žemyn,; žalią mygtuką su brūkšneliu, jei norite nutolinti; arba žalių rodyklių gretimoms žemėlapius.


METAR-TAF: